Time;durP1;ratioP1;P1;durP2;ratioP2;P2;SDS_P1;SDS_P2;PMS_P1;PMS_P2;Temp;Humidity;BMP_temperature;BMP_pressure;BME280_temperature;BME280_humidity;BME280_pressure;Samples;Min_cycle;Max_cycle;Signal;HPM_P1;HPM_P2
2022/11/04 00:01:08;;;;;;;5.88;4.55;;;;;;;18.27;49.58;92259.06;5033844;28;20044;-85
2022/11/04 00:03:33;;;;;;;5.80;4.47;;;;;;;18.27;49.43;92261.06;5034619;28;20483;-86
2022/11/04 00:06:03;;;;;;;5.88;4.20;;;;;;;18.25;49.53;92258.88;5067036;28;20045;-86
2022/11/04 00:08:28;;;;;;;4.68;3.78;;;;;;;18.25;49.64;92252.66;5050035;28;20596;-86
2022/11/04 00:13:39;;;;;;;5.32;3.78;;;;;;;18.25;49.76;92247.94;5073725;28;20242;-85
2022/11/04 00:18:48;;;;;;;5.20;3.95;;;;;;;18.28;49.33;92254.34;5066460;28;20038;-86
2022/11/04 00:29:25;;;;;;;4.88;3.75;;;;;;;18.26;49.54;92249.41;5059057;28;20047;-85
2022/11/04 00:34:34;;;;;;;5.50;3.75;;;;;;;18.26;49.52;92246.66;5066932;28;20047;-86
2022/11/04 00:37:01;;;;;;;4.13;3.60;;;;;;;18.27;49.36;92250.88;5033321;28;20033;-85
2022/11/04 00:39:27;;;;;;;4.13;3.30;;;;;;;18.25;49.70;92256.13;5021659;28;20046;-85
2022/11/04 00:41:52;;;;;;;4.05;3.45;;;;;;;18.25;49.63;92264.34;5070178;28;20040;-86
2022/11/04 00:44:18;;;;;;;4.28;3.30;;;;;;;18.24;49.76;92259.41;5049628;28;20044;-86
2022/11/04 00:46:43;;;;;;;4.72;3.58;;;;;;;18.24;49.83;92264.88;5016923;28;20048;-85
2022/11/04 00:49:09;;;;;;;3.97;2.85;;;;;;;18.24;49.58;92256.66;5017558;28;20060;-85
2022/11/04 00:51:34;;;;;;;4.25;3.47;;;;;;;18.24;49.78;92256.66;5053540;28;20452;-86
2022/11/04 00:54:00;;;;;;;5.10;3.90;;;;;;;18.25;49.94;92261.59;5036471;28;20040;-86
2022/11/04 00:56:26;;;;;;;3.90;3.35;;;;;;;18.23;49.53;92250.47;5052311;28;20036;-86
2022/11/04 00:58:51;;;;;;;4.18;3.50;;;;;;;18.24;49.78;92253.94;5038556;28;20436;-86
2022/11/04 01:01:17;;;;;;;3.92;3.10;;;;;;;18.24;49.67;92259.41;5046862;28;20426;-86
2022/11/04 01:03:44;;;;;;;4.07;3.35;;;;;;;18.25;49.60;92260.88;5033342;28;20045;-85
2022/11/04 01:06:09;;;;;;;4.40;3.13;;;;;;;18.24;49.58;92254.66;5033960;28;20131;-86
2022/11/04 01:08:35;;;;;;;3.35;2.72;;;;;;;18.23;49.97;92258.66;5032996;28;20400;-86
2022/11/04 01:11:01;;;;;;;4.07;3.10;;;;;;;18.22;49.70;92264.69;5024928;28;20041;-85
2022/11/04 01:13:27;;;;;;;4.78;3.10;;;;;;;18.22;49.55;92270.88;5032325;28;20060;-85
2022/11/04 01:15:52;;;;;;;3.55;2.92;;;;;;;18.22;49.63;92268.16;5063853;28;20379;-85
2022/11/04 01:18:17;;;;;;;5.00;3.10;;;;;;;18.24;49.36;92271.09;5035337;28;20032;-85
2022/11/04 01:20:43;;;;;;;3.58;3.00;;;;;;;18.22;49.75;92265.41;5048802;28;20044;-86
2022/11/04 01:23:08;;;;;;;3.80;3.35;;;;;;;18.23;49.81;92263.41;5032409;28;20043;-86
2022/11/04 01:25:37;;;;;;;4.03;3.00;;;;;;;18.22;49.36;92259.94;5040592;28;20479;-85
2022/11/04 01:28:03;;;;;;;3.60;2.42;;;;;;;18.24;49.63;92246.47;5047897;28;20048;-86
2022/11/04 01:30:28;;;;;;;3.75;2.92;;;;;;;18.24;49.55;92254.66;5079970;27;20070;-86
2022/11/04 01:32:53;;;;;;;4.25;3.20;;;;;;;18.24;49.64;92256.66;5052267;28;20086;-86
2022/11/04 01:35:19;;;;;;;3.92;2.80;;;;;;;18.24;49.67;92254.66;5056888;28;20402;-86
2022/11/04 01:37:44;;;;;;;4.97;3.15;;;;;;;18.23;49.88;92257.94;5086257;28;20052;-85
2022/11/04 01:40:10;;;;;;;3.88;2.70;;;;;;;18.23;49.90;92239.53;5052068;28;20040;-85
2022/11/04 01:42:35;;;;;;;3.63;2.80;;;;;;;18.27;49.96;92234.44;5044221;28;20036;-86
2022/11/04 01:45:01;;;;;;;3.13;2.50;;;;;;;18.24;49.95;92254.66;5008073;28;20107;-86
2022/11/04 01:47:30;;;;;;;3.22;2.58;;;;;;;18.23;49.30;92266.88;4990437;28;20045;-86
2022/11/04 01:50:00;;;;;;;3.95;2.67;;;;;;;18.22;49.91;92270.88;5025212;28;20037;-86
2022/11/04 01:52:34;;;;;;;2.40;2.20;;;;;;;18.21;49.90;92274.16;5024143;28;20125;-86
2022/11/04 01:55:02;;;;;;;3.97;2.95;;;;;;;18.19;49.52;92269.22;5026672;28;20037;-85
2022/11/04 01:57:33;;;;;;;3.88;2.53;;;;;;;18.20;49.91;92280.88;4994293;28;20049;-87
2022/11/04 02:00:00;;;;;;;3.60;2.53;;;;;;;18.22;49.50;92284.56;5007999;28;20030;-85
2022/11/04 02:02:25;;;;;;;3.13;2.72;;;;;;;18.22;49.72;92289.28;5022509;28;20036;-85
2022/11/04 02:04:51;;;;;;;3.33;2.17;;;;;;;18.21;49.62;92263.22;4994295;28;20048;-85
2022/11/04 02:07:16;;;;;;;2.92;2.28;;;;;;;18.20;49.85;92272.69;5009952;28;20040;-87
2022/11/04 02:09:42;;;;;;;3.55;2.78;;;;;;;18.20;49.88;92278.88;5028612;28;20052;-85
2022/11/04 02:14:51;;;;;;;3.60;2.40;;;;;;;18.21;49.71;92280.34;5097497;28;20042;-86
2022/11/04 02:17:17;;;;;;;3.78;2.42;;;;;;;18.21;49.70;92301.50;5079378;28;20036;-86
2022/11/04 02:20:20;;;;;;;2.78;2.22;;;;;;;18.22;50.02;92308.44;5092293;27;20048;-86
2022/11/04 02:22:54;;;;;;;3.42;2.05;;;;;;;18.22;50.05;92316.66;5131873;27;20486;-85
2022/11/04 02:25:40;;;;;;;2.45;2.05;;;;;;;18.22;50.10;92320.13;5083970;28;20035;-85
2022/11/04 02:28:11;;;;;;;3.00;2.00;;;;;;;18.24;49.90;92325.06;5071956;28;20039;-85
2022/11/04 02:30:51;;;;;;;2.63;2.10;;;;;;;18.20;50.04;92316.44;5104948;28;20059;-85
2022/11/04 02:33:18;;;;;;;2.50;1.92;;;;;;;18.23;49.63;92324.31;5072803;28;20086;-86
2022/11/04 02:35:55;;;;;;;2.70;1.98;;;;;;;18.21;50.03;92323.38;5090755;28;20958;-86
2022/11/04 02:38:23;;;;;;;2.30;1.80;;;;;;;18.20;49.84;92325.38;5051336;28;20036;-85
2022/11/04 02:41:16;;;;;;;2.78;1.80;;;;;;;18.21;49.89;92326.84;5060773;28;20106;-85
2022/11/04 02:43:52;;;;;;;2.75;2.00;;;;;;;18.20;49.90;92324.66;5040634;28;20455;-86
2022/11/04 02:46:23;;;;;;;1.88;1.70;;;;;;;18.20;49.99;92317.19;5085239;28;20061;-86
2022/11/04 02:48:50;;;;;;;;;;;;;;;18.23;49.74;92327.06;5092601;28;20066;-85
2022/11/04 02:51:32;;;;;;;2.30;1.80;;;;;;;18.20;50.26;92319.19;5091647;28;19923;-86
2022/11/04 02:54:06;;;;;;;3.03;2.00;;;;;;;18.18;49.97;92322.47;5075667;28;20126;-86
2022/11/04 02:56:31;;;;;;;2.47;1.90;;;;;;;18.19;50.32;92315.72;5079568;28;20028;-85
2022/11/04 02:59:00;;;;;;;2.28;1.98;;;;;;;18.19;50.22;92315.72;5055494;28;20036;-85
2022/11/04 03:01:28;;;;;;;2.15;1.73;;;;;;;18.19;49.92;92323.22;5051803;28;20079;-86
2022/11/04 03:04:04;;;;;;;2.15;1.75;;;;;;;18.21;50.03;92331.59;5055657;28;20056;-86
2022/11/04 03:06:29;;;;;;;3.08;1.98;;;;;;;18.20;50.12;92336.34;5031227;28;20041;-87
2022/11/04 03:08:55;;;;;;;2.45;2.00;;;;;;;18.23;49.93;92340.75;5029714;28;20049;-86
2022/11/04 03:11:24;;;;;;;2.25;1.98;;;;;;;18.21;49.73;92356.22;5041077;28;20051;-85
2022/11/04 03:13:57;;;;;;;3.03;2.00;;;;;;;18.20;49.99;92358.22;5034074;28;20079;-86
2022/11/04 03:16:32;;;;;;;3.20;2.30;;;;;;;18.21;49.86;92356.22;5049596;28;20052;-86
2022/11/04 03:19:07;;;;;;;3.05;2.00;;;;;;;18.19;49.78;92362.22;5046804;28;20041;-85
2022/11/04 03:21:33;;;;;;;2.80;1.83;;;;;;;18.18;50.08;92363.50;5009083;28;20049;-86
2022/11/04 03:23:58;;;;;;;2.50;1.77;;;;;;;18.17;49.82;92367.50;5007338;28;20037;-86
2022/11/04 03:26:39;;;;;;;2.35;1.83;;;;;;;18.20;50.18;92366.41;5029634;28;20048;-85
2022/11/04 03:29:19;;;;;;;2.65;1.95;;;;;;;18.19;49.99;92362.22;5028764;28;20071;-85
2022/11/04 03:31:49;;;;;;;2.90;1.80;;;;;;;18.18;49.70;92362.78;5058987;28;20098;-85
2022/11/04 03:34:15;;;;;;;2.40;1.70;;;;;;;18.19;50.01;92364.94;5059890;28;20036;-86
2022/11/04 03:36:40;;;;;;;2.20;1.70;;;;;;;18.19;49.97;92369.72;5060217;28;20043;-85
2022/11/04 03:39:06;;;;;;;1.85;1.40;;;;;;;18.23;50.00;92359.16;5087369;28;20498;-85
2022/11/04 03:41:50;;;;;;;2.05;1.50;;;;;;;18.18;49.78;92368.25;5087877;28;20040;-86
2022/11/04 03:44:15;;;;;;;2.90;1.50;;;;;;;18.20;50.15;92360.22;5084333;28;20857;-85
2022/11/04 03:46:40;;;;;;;2.15;1.85;;;;;;;18.18;50.08;92368.25;5068268;28;20033;-86
2022/11/04 03:49:06;;;;;;;2.13;1.65;;;;;;;18.19;49.96;92372.44;5050765;28;20060;-86
2022/11/04 03:51:31;;;;;;;2.35;1.60;;;;;;;18.19;49.85;92366.97;5067844;28;20040;-86
2022/11/04 03:53:57;;;;;;;1.92;1.55;;;;;;;18.17;50.08;92367.50;5051080;28;20040;-86
2022/11/04 03:56:30;;;;;;;2.85;1.63;;;;;;;18.16;50.06;92385.19;5039637;28;20055;-85
2022/11/04 03:59:05;;;;;;;2.45;1.73;;;;;;;18.16;49.79;92385.19;5034593;28;20032;-86
2022/11/04 04:01:30;;;;;;;1.80;1.38;;;;;;;18.21;50.02;92380.84;5072530;28;20035;-85
2022/11/04 04:04:16;;;;;;;2.08;1.65;;;;;;;18.17;49.97;92383.94;5108081;28;20425;-86
2022/11/04 04:06:42;;;;;;;1.50;1.33;;;;;;;18.17;49.73;92380.47;5077102;28;20115;-85
2022/11/04 04:09:28;;;;;;;1.73;1.23;;;;;;;18.15;50.14;92379.00;5043348;28;20033;-85
2022/11/04 04:12:06;;;;;;;1.73;1.42;;;;;;;18.16;49.95;92377.00;5066165;28;20039;-85
2022/11/04 04:14:41;;;;;;;2.30;1.60;;;;;;;18.16;50.36;92379.72;5078147;28;20020;-86
2022/11/04 04:17:32;;;;;;;2.08;1.55;;;;;;;18.16;50.07;92382.47;5074913;28;20456;-85
2022/11/04 04:20:03;;;;;;;2.20;1.40;;;;;;;18.15;50.21;92376.25;5055641;28;20486;-86
2022/11/04 04:22:38;;;;;;;2.38;1.55;;;;;;;18.15;49.86;92378.25;5053464;28;20035;-86
2022/11/04 04:27:49;;;;;;;2.05;1.50;;;;;;;18.15;49.99;92381.00;5073278;28;20067;-86
2022/11/04 04:30:15;;;;;;;1.80;1.40;;;;;;;18.13;50.08;92373.31;5066015;28;20491;-86
2022/11/04 04:32:45;;;;;;;1.63;1.42;;;;;;;18.13;50.17;92365.09;5055368;28;20470;-86
2022/11/04 04:44:58;;;;;;;5.00;3.33;;;;;;;18.02;50.18;92365.38;5067425;28;20127;-86
2022/11/04 04:46:11;;;;;;;7.43;5.55;;;;;;;18.02;50.54;92364.63;5071286;28;20050;-86
2022/11/04 04:48:36;;;;;;;12.43;4.47;;;;;;;18.02;49.90;92354.41;5069618;28;20040;-86
2022/11/04 04:51:02;;;;;;;8.15;4.40;;;;;;;18.02;50.35;92354.41;5052652;28;20043;-86
2022/11/04 04:53:27;;;;;;;6.88;4.43;;;;;;;18.03;50.70;92366.84;5069668;28;20040;-87
2022/11/04 04:55:52;;;;;;;7.47;4.15;;;;;;;18.04;50.19;92356.63;5075356;28;20048;-86
2022/11/04 04:58:18;;;;;;;5.75;3.05;;;;;;;18.06;49.98;92354.84;5052778;28;20547;-86
2022/11/04 05:00:43;;;;;;;7.28;3.47;;;;;;;18.08;50.78;92357.03;5052919;28;20442;-86
2022/11/04 05:03:09;;;;;;;5.00;3.47;;;;;;;18.09;50.17;92348.28;5048758;28;20063;-86
2022/11/04 05:05:34;;;;;;;5.40;2.92;;;;;;;18.10;50.16;92343.56;5050007;28;20043;-86
2022/11/04 05:08:05;;;;;;;5.15;3.08;;;;;;;18.11;50.41;92353.22;5049455;28;20474;-86
2022/11/04 05:10:30;;;;;;;5.78;3.10;;;;;;;18.09;50.08;92356.50;5052953;28;20047;-86
2022/11/04 05:15:40;;;;;;;6.22;3.50;;;;;;;18.09;50.35;92369.44;5087014;28;20097;-87
2022/11/04 05:18:05;;;;;;;4.55;3.38;;;;;;;18.11;50.22;92356.69;5062981;28;20036;-87
2022/11/04 05:20:33;;;;;;;8.18;4.68;;;;;;;18.10;50.48;92362.69;5033087;28;20044;-86
2022/11/04 05:22:58;;;;;;;9.60;4.60;;;;;;;18.10;50.04;92352.50;5084585;28;20449;-87
2022/11/04 05:25:24;;;;;;;7.38;5.10;;;;;;;18.12;50.41;92369.09;5061349;28;20036;-87
2022/11/04 05:27:49;;;;;;;9.38;5.65;;;;;;;18.11;50.34;92362.16;5049899;28;20066;-87
2022/11/04 05:30:15;;;;;;;11.63;4.88;;;;;;;18.11;50.58;92369.66;5065418;28;20048;-87
2022/11/04 05:32:40;;;;;;;8.88;4.60;;;;;;;18.11;50.50;92364.91;5034425;28;20048;-86
2022/11/04 05:35:06;;;;;;;8.48;5.00;;;;;;;18.11;50.13;92373.09;5065842;28;20032;-86
2022/11/04 05:37:31;;;;;;;7.28;4.28;;;;;;;18.14;50.60;92379.53;5069366;28;20058;-86
2022/11/04 05:39:57;;;;;;;9.80;4.55;;;;;;;18.13;49.98;92378.06;5052554;28;20029;-86
2022/11/04 05:42:22;;;;;;;9.95;4.38;;;;;;;18.14;50.25;92379.53;5068638;28;20055;-86
2022/11/04 05:44:47;;;;;;;6.45;3.78;;;;;;;18.12;50.18;92382.06;5069517;28;20418;-87
2022/11/04 05:47:13;;;;;;;9.25;4.13;;;;;;;18.11;50.09;92389.53;5054211;28;20055;-87
2022/11/04 05:49:38;;;;;;;5.43;4.28;;;;;;;18.13;50.07;92384.25;5032851;28;20051;-87
2022/11/04 05:52:04;;;;;;;4.68;3.80;;;;;;;18.15;50.60;92381.00;5042693;28;20044;-86
2022/11/04 05:54:29;;;;;;;6.65;4.80;;;;;;;18.14;50.28;92388.47;5072664;28;20036;-86
2022/11/04 05:56:55;;;;;;;13.25;7.22;;;;;;;18.14;50.30;92387.72;5063566;28;20457;-87
2022/11/04 05:59:20;;;;;;;13.43;7.00;;;;;;;18.14;50.47;92388.47;5071911;28;20117;-89
2022/11/04 06:01:47;;;;;;;15.55;8.05;;;;;;;18.15;50.55;92391.94;5059190;28;20040;-89
2022/11/04 06:04:14;;;;;;;13.38;7.72;;;;;;;18.15;50.40;92395.41;5092492;28;20036;-87
2022/11/04 06:06:40;;;;;;;17.05;10.40;;;;;;;18.15;50.25;92400.88;5076234;28;20039;-88
2022/11/04 06:09:05;;;;;;;19.08;11.15;;;;;;;18.16;50.38;92404.34;5074959;28;20403;-88
2022/11/04 06:11:31;;;;;;;17.92;11.13;;;;;;;18.17;50.24;92399.59;5059711;28;20032;-87
2022/11/04 06:13:57;;;;;;;19.58;10.52;;;;;;;18.16;50.51;92398.88;5059215;28;20048;-87
2022/11/04 06:16:22;;;;;;;16.60;10.80;;;;;;;18.19;50.37;92395.03;5088651;28;20059;-88
2022/11/04 06:18:48;;;;;;;21.20;11.80;;;;;;;18.17;50.22;92391.41;5067613;28;20051;-87
2022/11/04 06:21:13;;;;;;;20.17;10.68;;;;;;;18.18;50.47;92399.06;5071624;28;20090;-86
2022/11/04 06:23:40;;;;;;;18.73;10.77;;;;;;;18.19;50.22;92397.78;5074501;28;20054;-87
2022/11/04 06:26:06;;;;;;;18.73;10.00;;;;;;;18.17;50.18;92397.59;5051009;28;20033;-87
2022/11/04 06:28:31;;;;;;;18.10;9.80;;;;;;;18.17;50.35;92403.06;5057213;28;20044;-87
2022/11/04 06:30:57;;;;;;;17.77;10.45;;;;;;;18.16;50.38;92407.06;5046993;28;20033;-87
2022/11/04 06:33:23;;;;;;;15.80;9.38;;;;;;;18.17;50.46;92403.06;5058068;28;20055;-87
2022/11/04 06:35:49;;;;;;;17.17;9.40;;;;;;;18.18;50.56;92406.53;5059587;28;20119;-87
2022/11/04 06:38:14;;;;;;;21.65;10.95;;;;;;;18.17;50.63;92405.06;5031449;28;20029;-86
2022/11/04 06:40:39;;;;;;;23.20;11.02;;;;;;;18.15;50.00;92402.88;5040801;28;20032;-86
2022/11/04 06:43:05;;;;;;;19.98;12.15;;;;;;;18.15;50.01;92392.66;5053380;28;20406;-86
2022/11/04 06:45:30;;;;;;;18.08;10.27;;;;;;;18.14;50.07;92398.66;5063602;28;20043;-86
2022/11/04 06:47:55;;;;;;;16.20;7.10;;;;;;;18.09;49.12;92388.59;5058561;28;20043;-87
2022/11/04 06:50:21;;;;;;;12.25;6.18;;;;;;;18.04;49.15;92392.91;5057769;28;20065;-87
2022/11/04 06:52:47;;;;;;;8.10;5.00;;;;;;;17.98;48.73;92391.56;5058529;28;20128;-87
2022/11/04 06:55:12;;;;;;;7.45;5.38;;;;;;;17.92;48.58;92399.19;5058689;28;20089;-87
2022/11/04 06:57:38;;;;;;;8.98;5.97;;;;;;;17.88;49.29;92402.25;5058469;28;20043;-86
2022/11/04 07:00:03;;;;;;;8.40;5.63;;;;;;;17.86;49.01;92418.44;5058563;28;20040;-87
2022/11/04 07:02:29;;;;;;;11.73;5.07;;;;;;;17.80;49.24;92404.88;5056099;28;20036;-86
2022/11/04 07:04:54;;;;;;;6.45;4.63;;;;;;;17.78;49.09;92401.94;5072387;28;20044;-87
2022/11/04 07:07:19;;;;;;;8.82;5.03;;;;;;;17.71;49.13;92413.56;5059184;28;20028;-86
2022/11/04 07:09:45;;;;;;;8.55;5.25;;;;;;;17.70;48.85;92414.09;5071125;28;20165;-86
2022/11/04 07:12:10;;;;;;;10.60;5.10;;;;;;;17.68;48.91;92416.59;5035716;28;20037;-87
2022/11/04 07:14:35;;;;;;;7.15;3.90;;;;;;;17.70;49.05;92411.34;5035772;28;20074;-86
2022/11/04 07:17:01;;;;;;;6.28;4.20;;;;;;;17.67;49.50;92407.66;5018833;28;20036;-87
2022/11/04 07:19:26;;;;;;;5.68;3.75;;;;;;;17.68;48.96;92406.41;5036085;28;20074;-85
2022/11/04 07:21:52;;;;;;;9.23;3.83;;;;;;;17.70;49.36;92412.09;5021096;28;20033;-85
2022/11/04 07:24:17;;;;;;;4.72;3.60;;;;;;;17.73;49.28;92421.97;5071308;28;20040;-86
2022/11/04 07:26:43;;;;;;;6.63;3.90;;;;;;;17.74;49.46;92414.50;5040465;28;20392;-86
2022/11/04 07:29:09;;;;;;;6.97;4.78;;;;;;;17.78;49.52;92412.88;5037685;28;20040;-85
2022/11/04 07:31:35;;;;;;;9.50;4.82;;;;;;;17.78;49.67;92401.94;5055419;28;20181;-87
2022/11/04 07:34:01;;;;;;;10.98;5.20;;;;;;;17.80;49.14;92413.09;5034314;28;20498;-85
2022/11/04 07:36:27;;;;;;;9.48;7.03;;;;;;;17.81;49.27;92408.34;5018201;28;20033;-86
2022/11/04 07:38:53;;;;;;;12.38;7.43;;;;;;;17.84;49.53;92409.28;5048923;28;20051;-86
2022/11/04 07:41:18;;;;;;;11.13;6.47;;;;;;;17.86;49.37;92423.16;5050874;28;20548;-85
2022/11/04 07:43:48;;;;;;;11.70;7.32;;;;;;;17.85;49.72;92403.31;5034575;28;20045;-85
2022/11/04 07:46:14;;;;;;;14.82;8.02;;;;;;;17.86;49.77;92395.84;5028642;28;20565;-86
2022/11/04 07:48:39;;;;;;;12.65;6.45;;;;;;;17.87;49.79;92387.09;5067382;28;20043;-87
2022/11/04 07:51:06;;;;;;;8.85;6.25;;;;;;;17.87;50.16;92387.09;5033895;28;20045;-86
2022/11/04 07:53:31;;;;;;;9.38;6.22;;;;;;;17.92;50.15;92393.72;5052006;28;20525;-86
2022/11/04 07:55:57;;;;;;;10.88;6.28;;;;;;;17.91;50.14;92397.72;5054269;28;20044;-86
2022/11/04 07:58:22;;;;;;;9.35;5.45;;;;;;;17.89;50.10;92400.97;5041623;28;20041;-86
2022/11/04 08:00:48;;;;;;;7.43;5.70;;;;;;;17.91;50.21;92401.19;5060570;28;20395;-85
2022/11/04 08:03:14;;;;;;;10.30;6.57;;;;;;;17.92;50.04;92393.72;5079815;28;20044;-85
2022/11/04 08:05:39;;;;;;;10.90;6.53;;;;;;;17.92;50.08;92386.25;5070945;28;20099;-86
2022/11/04 08:08:04;;;;;;;12.13;6.68;;;;;;;17.94;50.02;92375.50;5053615;28;20040;-84
2022/11/04 08:10:30;;;;;;;10.68;6.82;;;;;;;17.92;50.17;92382.78;5070039;28;20032;-85
2022/11/04 08:12:55;;;;;;;10.93;7.13;;;;;;;17.93;50.32;92387.72;5047152;28;20036;-85
2022/11/04 08:15:21;;;;;;;10.15;6.50;;;;;;;17.94;50.58;92382.97;5068978;28;20119;-86
2022/11/04 08:17:46;;;;;;;10.52;6.63;;;;;;;17.94;50.42;92380.97;5084431;28;20036;-85
2022/11/04 08:20:12;;;;;;;11.68;7.13;;;;;;;17.95;50.19;92374.25;5075903;28;20111;-85
2022/11/04 08:22:37;;;;;;;11.73;6.15;;;;;;;17.94;50.40;92367.31;5064269;28;20102;-85
2022/11/04 08:25:03;;;;;;;15.35;7.03;;;;;;;17.97;51.26;92377.16;5033629;28;20122;-85
2022/11/04 08:27:29;;;;;;;9.05;6.53;;;;;;;17.98;50.89;92375.16;5034045;28;20052;-86
2022/11/04 08:29:54;;;;;;;8.02;5.55;;;;;;;17.98;50.14;92372.44;5059963;28;20036;-86
2022/11/04 08:32:20;;;;;;;10.30;6.07;;;;;;;17.97;50.46;92366.22;5072470;28;20086;-86
2022/11/04 08:34:45;;;;;;;11.35;6.38;;;;;;;17.97;50.56;92368.94;5073100;28;20035;-85
2022/11/04 08:37:14;;;;;;;8.30;5.25;;;;;;;18.00;50.05;92387.03;5071856;28;20042;-86
2022/11/04 08:39:40;;;;;;;9.07;5.07;;;;;;;18.02;50.66;92386.50;5058155;28;20038;-86
2022/11/04 08:42:07;;;;;;;14.85;5.63;;;;;;;18.03;50.34;92379.78;5108020;28;20035;-87
2022/11/04 08:44:32;;;;;;;8.30;5.03;;;;;;;17.98;50.20;92372.44;5109384;28;20035;-85
2022/11/04 08:46:58;;;;;;;9.15;4.35;;;;;;;18.01;50.36;92369.34;5090204;28;20129;-86
2022/11/04 08:49:23;;;;;;;10.98;4.93;;;;;;;18.01;50.66;92360.41;5071330;28;20036;-86
2022/11/04 08:51:55;;;;;;;9.05;4.95;;;;;;;18.03;50.45;92368.84;5073359;28;20050;-86
2022/11/04 08:54:20;;;;;;;9.57;5.38;;;;;;;18.00;50.55;92375.38;5107695;28;20060;-86
2022/11/04 08:56:46;;;;;;;7.50;4.18;;;;;;;18.01;50.33;92376.84;5091177;28;20124;-86
2022/11/04 08:59:11;;;;;;;8.95;4.93;;;;;;;18.03;50.27;92366.09;5059965;28;20055;-86
2022/11/04 09:01:37;;;;;;;7.00;4.88;;;;;;;18.01;50.01;92371.34;5107429;28;20035;-86
2022/11/04 09:04:03;;;;;;;8.30;4.40;;;;;;;18.02;50.23;92376.31;5072731;28;20130;-87
2022/11/04 09:06:31;;;;;;;10.48;5.18;;;;;;;18.01;50.44;92377.56;5089735;28;20051;-86
2022/11/04 09:09:02;;;;;;;9.57;4.95;;;;;;;18.01;50.51;92376.84;5072976;28;20036;-85
2022/11/04 09:11:28;;;;;;;8.38;4.20;;;;;;;18.00;50.52;92380.84;5091655;28;20100;-86
2022/11/04 09:13:54;;;;;;;7.38;4.72;;;;;;;18.00;50.55;92387.03;5076777;28;20772;-87
2022/11/04 09:16:19;;;;;;;16.35;4.90;;;;;;;18.01;50.86;92382.31;5035918;28;20040;-86
2022/11/04 09:18:45;;;;;;;7.93;4.57;;;;;;;18.02;50.76;92379.03;5048570;28;20441;-86
2022/11/04 09:21:10;;;;;;;8.52;4.35;;;;;;;18.03;50.62;92374.31;5059769;28;20036;-85
2022/11/04 09:23:36;;;;;;;9.05;4.43;;;;;;;18.04;50.75;92373.78;5063184;28;20023;-86
2022/11/04 09:26:09;;;;;;;6.03;3.90;;;;;;;18.03;50.50;92377.03;5059075;28;20051;-86
2022/11/04 09:28:34;;;;;;;6.15;4.03;;;;;;;18.01;50.61;92363.91;5056134;28;20384;-86
2022/11/04 09:31:04;;;;;;;7.25;4.10;;;;;;;18.01;50.50;92371.34;5064664;28;20141;-86
2022/11/04 09:33:29;;;;;;;4.13;3.47;;;;;;;18.01;50.24;92374.09;5055692;28;20047;-87
2022/11/04 09:35:56;;;;;;;7.93;4.47;;;;;;;18.02;50.71;92370.09;5068737;28;20032;-86
2022/11/04 09:38:22;;;;;;;4.90;3.33;;;;;;;18.06;50.85;92370.50;5041432;28;20109;-86
2022/11/04 09:40:49;;;;;;;7.40;3.78;;;;;;;18.05;50.32;92367.03;5057272;28;20039;-87
2022/11/04 09:43:41;;;;;;;6.60;3.15;;;;;;;18.02;50.60;92370.09;5040223;28;20039;-86
2022/11/04 09:46:08;;;;;;;5.72;3.45;;;;;;;18.02;50.81;92362.63;5076549;28;20039;-85
2022/11/04 09:48:38;;;;;;;5.55;3.47;;;;;;;18.03;50.47;92349.69;5069390;28;20039;-85
2022/11/04 09:51:04;;;;;;;6.93;4.00;;;;;;;18.01;50.77;92344.00;5059501;28;20028;-84
2022/11/04 09:53:43;;;;;;;6.05;3.90;;;;;;;18.03;50.80;92336.75;5052483;28;20683;-86
2022/11/04 09:56:16;;;;;;;7.65;3.97;;;;;;;18.03;50.63;92341.47;5059458;28;20038;-87
2022/11/04 09:58:41;;;;;;;6.88;3.60;;;;;;;18.02;50.89;92343.47;5077134;28;20044;-85
2022/11/04 10:01:29;;;;;;;7.88;3.33;;;;;;;18.02;50.64;92335.28;5062488;28;20529;-85
2022/11/04 10:04:09;;;;;;;8.70;4.25;;;;;;;18.01;50.75;92339.28;5058278;28;20036;-85
2022/11/04 10:07:10;;;;;;;11.38;4.15;;;;;;;18.03;50.57;92336.75;5079341;28;20040;-85
2022/11/04 10:09:47;;;;;;;8.45;4.78;;;;;;;18.04;50.54;92335.47;5088179;28;20044;-85
2022/11/04 10:13:00;;;;;;;10.52;3.97;;;;;;;18.05;50.76;92330.75;5091021;28;20043;-86
2022/11/04 10:15:57;;;;;;;6.40;3.83;;;;;;;18.01;50.89;92309.19;5085420;28;20093;-85
2022/11/04 10:18:26;;;;;;;6.70;3.22;;;;;;;18.01;50.78;92295.53;5077341;28;20571;-87
2022/11/04 10:21:10;;;;;;;7.82;3.30;;;;;;;18.01;50.80;92289.31;5075995;28;20050;-87
2022/11/04 10:23:44;;;;;;;6.05;3.83;;;;;;;18.00;50.75;92290.59;5077624;28;20044;-87
2022/11/04 10:26:16;;;;;;;8.43;3.30;;;;;;;17.98;50.78;92285.66;5056734;28;20036;-87
2022/11/04 10:28:45;;;;;;;8.23;3.67;;;;;;;18.00;50.85;92287.84;5060318;28;20035;-86
2022/11/04 10:31:14;;;;;;;9.15;3.55;;;;;;;18.04;50.59;92282.78;5051202;28;20076;-85
2022/11/04 10:33:43;;;;;;;10.10;4.28;;;;;;;18.01;50.61;92286.59;5051233;28;20073;-86
2022/11/04 10:36:08;;;;;;;9.35;3.92;;;;;;;17.99;51.05;92281.66;5039506;28;20703;-86
2022/11/04 10:38:38;;;;;;;18.13;4.75;;;;;;;18.00;50.65;92285.84;5038162;28;20132;-85
2022/11/04 10:41:14;;;;;;;12.07;4.78;;;;;;;18.01;50.47;92289.31;5066651;28;20324;-86
2022/11/04 10:43:40;;;;;;;7.95;3.72;;;;;;;18.00;50.87;92280.38;5058810;28;20071;-85
2022/11/04 10:46:23;;;;;;;7.85;4.00;;;;;;;18.01;50.58;92281.84;5055072;28;20036;-86
2022/11/04 10:49:01;;;;;;;13.93;3.95;;;;;;;18.02;50.90;92277.13;5077802;28;20154;-86
2022/11/04 10:51:27;;;;;;;15.07;3.45;;;;;;;18.02;50.48;92279.84;5072339;28;20031;-85
2022/11/04 10:53:54;;;;;;;5.45;3.42;;;;;;;17.99;50.58;92269.97;5070139;28;20048;-86
2022/11/04 10:56:46;;;;;;;5.70;2.50;;;;;;;18.02;50.41;92277.13;5064162;28;20036;-86
2022/11/04 10:59:19;;;;;;;3.90;2.08;;;;;;;18.01;50.46;92273.66;5080790;28;20078;-86
2022/11/04 11:01:50;;;;;;;6.50;2.42;;;;;;;18.01;50.38;92265.44;5091815;28;20539;-85
2022/11/04 11:04:36;;;;;;;6.97;3.03;;;;;;;18.00;50.69;92255.78;5054192;28;20155;-86
2022/11/04 11:07:03;;;;;;;3.58;1.92;;;;;;;18.02;50.43;92249.78;5054530;28;20522;-85
2022/11/04 11:09:34;;;;;;;5.13;2.20;;;;;;;17.99;50.58;92237.19;5044551;28;20051;-86
2022/11/04 11:11:59;;;;;;;;;;;;;;;18.03;50.48;92224.63;5058719;28;20119;-85
2022/11/04 11:14:28;;;;;;;4.28;2.20;;;;;;;18.00;50.43;92222.97;5081138;28;20351;-86
2022/11/04 11:16:54;;;;;;;3.35;1.95;;;;;;;17.98;50.49;92217.31;5103665;28;20044;-86
2022/11/04 11:19:21;;;;;;;2.47;1.83;;;;;;;18.03;50.75;92207.50;5046460;28;20477;-86
2022/11/04 11:21:47;;;;;;;2.90;2.00;;;;;;;18.01;50.44;92199.09;5070944;28;20039;-85
2022/11/04 11:24:15;;;;;;;4.63;1.70;;;;;;;18.01;50.76;92221.69;5104779;28;20047;-85
2022/11/04 11:26:46;;;;;;;6.82;1.67;;;;;;;18.01;50.43;92220.97;5064788;28;20382;-86
2022/11/04 11:29:12;;;;;;;3.85;1.65;;;;;;;17.98;50.50;92230.25;5042926;28;20036;-85
2022/11/04 11:31:38;;;;;;;2.58;1.58;;;;;;;17.99;50.60;92228.97;5088446;28;20044;-86
2022/11/04 11:34:06;;;;;;;2.20;1.30;;;;;;;18.02;50.23;92222.44;5053781;28;20094;-86
2022/11/04 11:36:32;;;;;;;2.28;1.60;;;;;;;18.02;50.47;92216.97;5074453;28;20433;-85
2022/11/04 11:39:10;;;;;;;2.28;1.40;;;;;;;18.00;50.51;92220.22;5043858;28;20058;-85
2022/11/04 11:41:51;;;;;;;3.25;1.77;;;;;;;17.98;50.30;92219.31;5084659;28;20085;-85
2022/11/04 11:44:21;;;;;;;2.33;1.95;;;;;;;17.95;49.67;92223.88;5106118;27;20047;-86
2022/11/04 11:46:53;;;;;;;2.50;2.00;;;;;;;17.97;50.20;92229.50;5086429;28;20498;-86
2022/11/04 11:49:34;;;;;;;11.05;2.28;;;;;;;17.97;49.75;92229.50;5091962;28;20035;-86
2022/11/04 11:52:16;;;;;;;5.28;2.20;;;;;;;17.98;50.00;92227.50;5071220;28;20515;-87
2022/11/04 11:54:43;;;;;;;9.30;2.70;;;;;;;17.97;50.54;92220.59;5095461;27;20076;-86
2022/11/04 11:57:28;;;;;;;8.90;3.00;;;;;;;17.96;50.40;92217.13;5062698;28;20036;-86
2022/11/04 12:00:00;;;;;;;10.93;2.50;;;;;;;17.95;50.90;92221.13;5067042;27;20413;-86
2022/11/04 12:02:45;;;;;;;14.98;3.50;;;;;;;17.98;51.50;92217.31;5074553;28;20031;-86
2022/11/04 12:05:11;;;;;;;12.18;3.45;;;;;;;17.97;51.13;92229.50;5066624;28;20508;-86
2022/11/04 12:07:48;;;;;;;12.43;2.80;;;;;;;17.99;51.39;92242.63;5057521;28;20039;-86
2022/11/04 12:10:44;;;;;;;17.83;3.60;;;;;;;17.96;51.04;92243.75;5071299;27;20051;-86
2022/11/04 12:13:23;;;;;;;12.50;2.88;;;;;;;17.96;51.05;92252.66;5053647;28;20044;-86